createdAt,value
2024-02-01T00:01:19.804Z,69.30
2024-02-01T00:03:47.770Z,69.20
2024-02-01T00:06:16.771Z,69.20
2024-02-01T00:08:45.056Z,69.10
2024-02-01T00:11:13.413Z,69.30
2024-02-01T00:13:41.365Z,69.30
2024-02-01T00:16:10.690Z,69.20
2024-02-01T00:18:38.855Z,69.30
2024-02-01T00:21:07.058Z,69.50
2024-02-01T00:23:35.138Z,69.60
2024-02-01T00:26:03.138Z,69.60
2024-02-01T00:28:32.573Z,69.60
2024-02-01T00:31:00.542Z,69.80
2024-02-01T00:33:30.116Z,69.80
2024-02-01T00:35:58.283Z,69.90
2024-02-01T00:38:26.292Z,69.80
2024-02-01T00:40:54.239Z,70.20
2024-02-01T00:43:22.610Z,70.10
2024-02-01T00:45:50.593Z,70.20
2024-02-01T00:48:18.793Z,70.20
2024-02-01T00:50:49.242Z,70.30
2024-02-01T00:53:17.243Z,70.40
2024-02-01T00:55:45.210Z,70.50
2024-02-01T00:58:13.293Z,70.30
2024-02-01T01:00:41.348Z,70.50
2024-02-01T01:03:09.871Z,70.50
2024-02-01T01:05:37.957Z,70.50
2024-02-01T01:08:08.183Z,70.60
2024-02-01T01:10:36.252Z,70.70
2024-02-01T01:13:04.383Z,70.60
2024-02-01T01:15:32.435Z,70.70
2024-02-01T01:18:00.628Z,70.50
2024-02-01T01:20:28.835Z,70.50
2024-02-01T01:22:57.035Z,70.50
2024-02-01T01:25:26.351Z,70.40
2024-02-01T01:27:54.348Z,70.40
2024-02-01T01:30:22.525Z,70.40
2024-02-01T01:32:50.622Z,70.40
2024-02-01T01:35:18.688Z,70.40
2024-02-01T01:37:46.684Z,70.50
2024-02-01T01:40:14.797Z,70.40
2024-02-01T01:42:47.015Z,70.20
2024-02-01T01:45:15.143Z,70.40
2024-02-01T01:47:43.393Z,70.40
2024-02-01T01:50:11.742Z,70.40
2024-02-01T01:52:41.861Z,70.30
2024-02-01T01:55:10.922Z,70.60
2024-02-01T01:57:40.027Z,71.00
2024-02-01T02:00:11.243Z,71.20
2024-02-01T02:02:40.879Z,71.50
2024-02-01T02:05:09.030Z,71.90
2024-02-01T02:07:37.093Z,72.30
2024-02-01T02:10:06.389Z,72.30
2024-02-01T02:12:34.420Z,72.20
2024-02-01T02:15:04.999Z,72.10
2024-02-01T02:17:34.521Z,72.00
2024-02-01T02:20:16.858Z,71.70
2024-02-01T02:22:47.933Z,71.60
2024-02-01T02:25:16.548Z,71.40
2024-02-01T02:27:45.360Z,71.40
2024-02-01T02:30:14.164Z,71.30
2024-02-01T02:32:42.906Z,71.70
2024-02-01T02:35:14.536Z,71.70
2024-02-01T02:37:50.604Z,71.90
2024-02-01T02:40:20.080Z,71.90
2024-02-01T02:42:48.679Z,72.10
2024-02-01T02:45:17.457Z,72.00
2024-02-01T02:47:46.527Z,72.20
2024-02-01T02:50:14.666Z,72.20
2024-02-01T02:52:46.117Z,72.50
2024-02-01T02:55:15.915Z,72.50
2024-02-01T02:57:44.011Z,72.70
2024-02-01T03:00:19.672Z,72.70
2024-02-01T03:02:50.243Z,72.70
2024-02-01T03:05:19.095Z,72.60
2024-02-01T03:07:47.370Z,72.90
2024-02-01T03:10:17.140Z,73.00
2024-02-01T03:12:45.220Z,72.80
2024-02-01T03:15:13.426Z,72.60
2024-02-01T03:17:42.186Z,72.40
2024-02-01T03:20:18.816Z,72.20
2024-02-01T03:22:48.138Z,72.00
2024-02-01T03:25:18.116Z,71.70
2024-02-01T03:27:46.604Z,71.40
2024-02-01T03:30:16.587Z,71.10
2024-02-01T03:32:46.385Z,70.50
2024-02-01T03:35:17.227Z,70.40
2024-02-01T03:37:45.196Z,70.10
2024-02-01T03:40:14.298Z,70.00
2024-02-01T03:42:43.621Z,69.50
2024-02-01T03:45:12.539Z,68.70
2024-02-01T03:47:40.701Z,67.70
2024-02-01T03:50:10.366Z,67.60
2024-02-01T03:52:40.161Z,66.60
2024-02-01T03:55:17.408Z,66.40
2024-02-01T03:57:47.917Z,65.70
2024-02-01T04:00:30.436Z,65.00
2024-02-01T04:02:59.440Z,64.80
2024-02-01T04:05:28.324Z,64.30
2024-02-01T04:07:56.770Z,63.60
2024-02-01T04:10:24.714Z,63.70
2024-02-01T04:12:54.031Z,63.70
2024-02-01T04:15:22.059Z,63.80
2024-02-01T04:17:50.636Z,63.80
2024-02-01T04:20:19.181Z,63.90
2024-02-01T04:22:50.875Z,63.70
2024-02-01T04:25:19.244Z,63.70
2024-02-01T04:27:50.751Z,63.70
2024-02-01T04:30:20.933Z,63.50
2024-02-01T04:32:50.371Z,63.40
2024-02-01T04:35:18.844Z,63.50
2024-02-01T04:37:54.008Z,63.90
2024-02-01T04:40:23.360Z,64.20
2024-02-01T04:42:52.800Z,64.70
2024-02-01T04:45:22.294Z,65.20
2024-02-01T04:47:50.706Z,65.20
2024-02-01T04:50:18.904Z,65.20
2024-02-01T04:52:46.850Z,65.40
2024-02-01T04:55:14.883Z,65.60
2024-02-01T04:57:43.038Z,65.90
2024-02-01T05:00:16.710Z,66.10
2024-02-01T05:02:48.329Z,66.30
2024-02-01T05:05:17.821Z,66.20
2024-02-01T05:07:45.968Z,66.20
2024-02-01T05:10:15.263Z,66.50
2024-02-01T05:12:43.866Z,66.70
2024-02-01T05:15:14.086Z,66.90
2024-02-01T05:17:42.786Z,67.10
2024-02-01T05:20:13.433Z,67.30
2024-02-01T05:22:43.949Z,67.40
2024-02-01T05:25:17.270Z,67.40
2024-02-01T05:27:51.947Z,67.60
2024-02-01T05:30:22.678Z,67.80
2024-02-01T05:32:55.010Z,68.00
2024-02-01T05:35:30.567Z,68.00
2024-02-01T05:38:01.548Z,68.30
2024-02-01T05:40:30.743Z,68.50
2024-02-01T05:42:58.984Z,68.80
2024-02-01T05:45:30.147Z,69.50
2024-02-01T05:47:59.646Z,69.90
2024-02-01T05:50:29.731Z,70.70
2024-02-01T05:52:57.972Z,71.10
2024-02-01T05:55:26.046Z,71.40
2024-02-01T05:57:54.153Z,71.80
2024-02-01T06:00:24.586Z,72.00
2024-02-01T06:02:53.974Z,72.10
2024-02-01T06:05:22.381Z,72.20
2024-02-01T06:07:51.807Z,72.30
2024-02-01T06:10:19.898Z,72.30
2024-02-01T06:12:47.941Z,72.50
2024-02-01T06:15:16.205Z,72.90
2024-02-01T06:17:44.498Z,73.30
2024-02-01T06:20:13.768Z,73.80
2024-02-01T06:22:41.812Z,74.20
2024-02-01T06:25:13.508Z,74.30
2024-02-01T06:27:42.030Z,74.20
2024-02-01T06:30:12.410Z,74.40
2024-02-01T06:32:41.820Z,74.70
2024-02-01T06:35:17.631Z,75.10
2024-02-01T06:37:52.915Z,75.30
2024-02-01T06:40:50.392Z,75.60
2024-02-01T06:43:33.171Z,76.20
2024-02-01T06:46:09.835Z,77.00
2024-02-01T06:48:45.787Z,77.80
2024-02-01T06:51:25.453Z,78.50
2024-02-01T06:53:58.621Z,79.20
2024-02-01T06:56:50.741Z,80.50
2024-02-01T06:59:33.364Z,80.00
2024-02-01T07:02:07.654Z,80.30
2024-02-01T07:04:51.047Z,80.70
2024-02-01T07:07:28.356Z,81.00
2024-02-01T07:10:07.226Z,81.20
2024-02-01T07:12:44.470Z,81.70
2024-02-01T07:15:32.967Z,81.70
2024-02-01T07:18:07.160Z,82.40
2024-02-01T07:20:48.706Z,82.50
2024-02-01T07:23:35.701Z,83.20
2024-02-01T07:26:17.484Z,83.20
2024-02-01T07:29:04.579Z,83.50
2024-02-01T07:31:50.257Z,84.00
2024-02-01T07:34:35.997Z,84.80
2024-02-01T07:37:21.461Z,85.70
2024-02-01T07:40:06.935Z,86.30
2024-02-01T07:42:53.168Z,87.00
2024-02-01T07:45:40.361Z,87.20
2024-02-01T07:48:26.444Z,87.90
2024-02-01T07:51:11.987Z,88.70
2024-02-01T07:53:58.129Z,89.10
2024-02-01T07:56:40.064Z,89.50
2024-02-01T07:59:11.692Z,90.00
2024-02-01T08:02:01.121Z,90.20
2024-02-01T08:04:49.719Z,90.50
2024-02-01T08:07:35.132Z,90.30
2024-02-01T08:10:03.143Z,90.50
2024-02-01T08:12:34.894Z,90.30
2024-02-01T08:15:04.245Z,90.30
2024-02-01T08:17:33.840Z,90.60
2024-02-01T08:20:13.275Z,90.50
2024-02-01T08:22:42.528Z,90.60
2024-02-01T08:25:12.561Z,90.30
2024-02-01T08:27:50.254Z,90.40
2024-02-01T08:30:20.863Z,90.50
2024-02-01T08:32:51.509Z,90.50
2024-02-01T08:35:19.626Z,90.80
2024-02-01T08:37:47.896Z,90.80
2024-02-01T08:40:18.973Z,91.00
2024-02-01T08:42:47.554Z,91.10
2024-02-01T08:45:19.633Z,91.20
2024-02-01T08:47:47.760Z,91.30
2024-02-01T08:50:17.162Z,91.00
2024-02-01T08:52:47.760Z,91.10
2024-02-01T08:55:17.115Z,91.10
2024-02-01T08:57:45.856Z,91.20
2024-02-01T09:00:30.677Z,91.20
2024-02-01T09:03:05.845Z,91.10
2024-02-01T09:05:37.528Z,91.00
2024-02-01T09:08:07.617Z,90.80
2024-02-01T09:10:35.749Z,90.30
2024-02-01T09:13:04.457Z,90.30
2024-02-01T09:15:33.993Z,90.30
2024-02-01T09:18:02.726Z,90.30
2024-02-01T09:20:30.841Z,90.50
2024-02-01T09:23:00.148Z,90.70
2024-02-01T09:25:28.254Z,90.70
2024-02-01T09:27:56.529Z,91.00
2024-02-01T09:30:27.893Z,91.20
2024-02-01T09:32:56.190Z,91.00
2024-02-01T09:35:28.239Z,90.90
2024-02-01T09:37:56.313Z,90.70
2024-02-01T09:40:27.227Z,90.80
2024-02-01T09:42:55.256Z,90.80
2024-02-01T09:45:29.741Z,90.70
2024-02-01T09:47:58.235Z,90.60
2024-02-01T09:50:26.522Z,90.60
2024-02-01T09:52:54.712Z,90.70
2024-02-01T09:55:22.789Z,90.70
2024-02-01T09:57:55.328Z,90.80
2024-02-01T10:00:25.058Z,90.80
2024-02-01T10:02:54.947Z,91.00
2024-02-01T10:05:24.173Z,91.30
2024-02-01T10:07:53.891Z,91.40
2024-02-01T10:10:22.488Z,91.90
2024-02-01T10:12:59.443Z,92.00
2024-02-01T10:15:31.706Z,92.10
2024-02-01T10:18:00.666Z,92.40
2024-02-01T10:20:37.082Z,92.70
2024-02-01T10:23:06.415Z,93.00
2024-02-01T10:25:40.209Z,92.90
2024-02-01T10:28:12.907Z,93.20
2024-02-01T10:30:42.179Z,93.50
2024-02-01T10:33:11.601Z,94.00
2024-02-01T10:35:40.483Z,94.20
2024-02-01T10:38:19.338Z,95.10
2024-02-01T10:41:00.900Z,94.50
2024-02-01T10:43:31.979Z,94.70
2024-02-01T10:46:08.546Z,94.60
2024-02-01T10:48:42.110Z,94.50
2024-02-01T10:51:16.289Z,94.70
2024-02-01T10:53:46.869Z,94.90
2024-02-01T10:56:16.561Z,95.00
2024-02-01T10:58:50.114Z,95.10
2024-02-01T11:01:20.069Z,95.30
2024-02-01T11:03:52.153Z,95.30
2024-02-01T11:06:21.733Z,95.30
2024-02-01T11:08:52.487Z,95.20
2024-02-01T11:11:23.474Z,95.20
2024-02-01T11:14:10.191Z,95.10
2024-02-01T11:16:39.733Z,95.20
2024-02-01T11:19:13.007Z,95.00
2024-02-01T11:21:49.450Z,95.10
2024-02-01T11:24:20.837Z,95.20
2024-02-01T11:26:55.833Z,95.50
2024-02-01T11:29:26.394Z,95.50
2024-02-01T11:31:57.461Z,95.60
2024-02-01T11:34:27.186Z,95.60
2024-02-01T11:36:56.103Z,95.30
2024-02-01T11:39:25.245Z,95.30
2024-02-01T11:41:55.319Z,95.40
2024-02-01T11:44:25.540Z,95.50
2024-02-01T11:46:54.902Z,95.60
2024-02-01T11:49:29.173Z,95.60
2024-02-01T11:52:14.875Z,95.70
2024-02-01T11:54:47.304Z,95.80
2024-02-01T11:57:18.682Z,95.70
2024-02-01T11:59:48.990Z,95.70
2024-02-01T12:02:18.396Z,95.70
2024-02-01T12:04:47.856Z,95.60
2024-02-01T12:07:17.906Z,95.50
2024-02-01T12:09:47.419Z,95.40
2024-02-01T12:12:19.312Z,96.20
2024-02-01T12:14:51.250Z,95.30
2024-02-01T12:17:19.455Z,95.10
2024-02-01T12:19:48.454Z,94.60
2024-02-01T12:22:16.949Z,94.40
2024-02-01T12:24:45.844Z,94.40
2024-02-01T12:27:14.655Z,94.40
2024-02-01T12:29:43.298Z,94.30
2024-02-01T12:32:14.595Z,94.20
2024-02-01T12:34:43.813Z,94.20
2024-02-01T12:37:12.632Z,94.30
2024-02-01T12:39:42.806Z,94.20
2024-02-01T12:42:16.268Z,94.00
2024-02-01T12:44:44.850Z,93.70
2024-02-01T12:47:14.241Z,93.70
2024-02-01T12:49:42.288Z,93.60
2024-02-01T12:52:10.666Z,93.40
2024-02-01T12:54:41.338Z,93.30
2024-02-01T12:57:10.073Z,93.30
2024-02-01T12:59:38.689Z,93.20
2024-02-01T13:02:07.257Z,93.00
2024-02-01T13:04:36.587Z,92.90
2024-02-01T13:07:04.982Z,92.70
2024-02-01T13:09:35.195Z,92.60
2024-02-01T13:12:19.715Z,92.40
2024-02-01T13:14:59.202Z,92.50
2024-02-01T13:17:29.063Z,92.40
2024-02-01T13:19:59.517Z,92.30
2024-02-01T13:22:28.777Z,92.40
2024-02-01T13:24:57.143Z,92.30
2024-02-01T13:27:25.218Z,92.30
2024-02-01T13:29:53.373Z,92.50
2024-02-01T13:32:21.457Z,92.50
2024-02-01T13:34:50.197Z,92.60
2024-02-01T13:37:19.712Z,92.90
2024-02-01T13:39:47.895Z,92.90
2024-02-01T13:42:16.129Z,93.00
2024-02-01T13:44:44.960Z,93.10
2024-02-01T13:47:13.052Z,93.20
2024-02-01T13:49:44.774Z,93.20
2024-02-01T13:52:13.587Z,93.20
2024-02-01T13:54:43.266Z,93.30
2024-02-01T13:57:11.332Z,93.70
2024-02-01T13:59:39.476Z,93.70
2024-02-01T14:02:09.781Z,93.60
2024-02-01T14:04:37.864Z,93.20
2024-02-01T14:07:06.288Z,92.50
2024-02-01T14:09:37.313Z,92.10
2024-02-01T14:12:07.669Z,92.40
2024-02-01T14:14:35.792Z,92.70
2024-02-01T14:17:04.051Z,93.10
2024-02-01T14:19:32.440Z,93.40
2024-02-01T14:22:00.630Z,93.50
2024-02-01T14:24:29.409Z,93.80
2024-02-01T14:26:57.530Z,93.90
2024-02-01T14:29:26.984Z,94.20
2024-02-01T14:31:55.753Z,94.30
2024-02-01T14:34:23.917Z,94.30
2024-02-01T14:36:52.058Z,94.50
2024-02-01T14:39:27.316Z,94.60
2024-02-01T14:41:57.535Z,94.60
2024-02-01T14:44:27.758Z,94.50
2024-02-01T14:46:56.348Z,94.50
2024-02-01T14:49:25.857Z,94.40
2024-02-01T14:51:54.869Z,94.30
2024-02-01T14:54:24.562Z,94.10
2024-02-01T14:56:53.322Z,94.10
2024-02-01T14:59:21.781Z,94.10
2024-02-01T15:01:53.836Z,94.10
2024-02-01T15:04:21.957Z,94.00
2024-02-01T15:06:50.122Z,94.00
2024-02-01T15:09:19.827Z,93.90
2024-02-01T15:11:48.123Z,93.90
2024-02-01T15:14:17.644Z,93.90
2024-02-01T15:16:46.714Z,93.90
2024-02-01T15:19:16.248Z,93.90
2024-02-01T15:21:44.367Z,93.90
2024-02-01T15:24:16.260Z,93.70
2024-02-01T15:26:44.491Z,93.80
2024-02-01T15:29:13.987Z,93.70
2024-02-01T15:31:43.004Z,93.90
2024-02-01T15:34:11.280Z,93.90
2024-02-01T15:36:41.256Z,94.10
2024-02-01T15:39:10.725Z,94.40
2024-02-01T15:41:39.213Z,94.50
2024-02-01T15:44:07.384Z,95.20
2024-02-01T15:46:35.989Z,94.60
2024-02-01T15:49:05.257Z,94.70
2024-02-01T15:51:33.492Z,94.60
2024-02-01T15:54:03.428Z,94.80
2024-02-01T15:56:31.436Z,95.00
2024-02-01T15:59:00.225Z,95.00
2024-02-01T16:01:29.558Z,95.00
2024-02-01T16:03:58.777Z,95.00
2024-02-01T16:06:27.127Z,95.80
2024-02-01T16:08:59.205Z,95.10
2024-02-01T16:11:36.878Z,95.20
2024-02-01T16:14:07.737Z,95.00
2024-02-01T16:16:37.824Z,95.10
2024-02-01T16:19:09.165Z,95.10
2024-02-01T16:21:37.454Z,95.20
2024-02-01T16:24:12.515Z,95.30
2024-02-01T16:26:42.278Z,95.40
2024-02-01T16:29:12.949Z,95.40
2024-02-01T16:31:40.919Z,95.30
2024-02-01T16:34:29.545Z,95.30
2024-02-01T16:36:59.364Z,95.20
2024-02-01T16:39:53.518Z,95.30
2024-02-01T16:42:32.857Z,95.00
2024-02-01T16:45:02.831Z,95.00
2024-02-01T16:47:39.066Z,94.90
2024-02-01T16:50:27.587Z,94.80
2024-02-01T16:52:58.135Z,94.70
2024-02-01T16:55:40.463Z,94.40
2024-02-01T16:58:26.898Z,94.20
2024-02-01T17:00:57.932Z,93.90
2024-02-01T17:03:27.122Z,93.80
2024-02-01T17:05:57.832Z,93.40
2024-02-01T17:08:42.414Z,92.90
2024-02-01T17:11:12.534Z,92.40
2024-02-01T17:13:41.865Z,92.10
2024-02-01T17:16:31.598Z,91.90
2024-02-01T17:18:59.831Z,91.70
2024-02-01T17:21:30.158Z,91.30
2024-02-01T17:23:58.561Z,91.10
2024-02-01T17:26:29.448Z,90.80
2024-02-01T17:28:59.475Z,90.50
2024-02-01T17:31:34.597Z,90.60
2024-02-01T17:34:05.180Z,90.20
2024-02-01T17:36:43.984Z,90.10
2024-02-01T17:39:14.166Z,89.80
2024-02-01T17:41:47.895Z,89.10
2024-02-01T17:44:29.054Z,89.10
2024-02-01T17:47:00.642Z,89.30
2024-02-01T17:49:40.886Z,89.50
2024-02-01T17:52:37.768Z,89.60
2024-02-01T17:55:09.988Z,88.70
2024-02-01T17:57:42.050Z,87.20
2024-02-01T18:00:17.129Z,85.40
2024-02-01T18:02:47.275Z,85.30
2024-02-01T18:05:15.651Z,85.90
2024-02-01T18:07:44.535Z,85.90
2024-02-01T18:10:13.375Z,86.50
2024-02-01T18:12:44.729Z,86.40
2024-02-01T18:15:52.819Z,86.90
2024-02-01T18:18:27.229Z,87.10
2024-02-01T18:20:57.458Z,86.00
2024-02-01T18:23:28.155Z,84.90
2024-02-01T18:26:05.197Z,84.80
2024-02-01T18:28:33.967Z,85.40
2024-02-01T18:31:04.977Z,85.30
2024-02-01T18:33:33.603Z,85.00
2024-02-01T18:36:08.230Z,84.50
2024-02-01T18:38:57.239Z,84.20
2024-02-01T18:41:26.054Z,83.10
2024-02-01T18:44:17.407Z,83.10
2024-02-01T18:46:49.565Z,83.30
2024-02-01T18:49:21.355Z,83.00
2024-02-01T18:52:04.433Z,83.30
2024-02-01T18:54:35.822Z,84.00
2024-02-01T18:57:06.720Z,83.20
2024-02-01T18:59:55.481Z,83.00
2024-02-01T19:02:51.665Z,82.90
2024-02-01T19:05:20.313Z,83.50
2024-02-01T19:07:56.798Z,82.60
2024-02-01T19:10:43.713Z,82.70
2024-02-01T19:13:43.374Z,82.90
2024-02-01T19:16:17.317Z,83.40
2024-02-01T19:18:47.315Z,84.10
2024-02-01T19:21:15.679Z,84.70
2024-02-01T19:23:44.521Z,86.00
2024-02-01T19:26:13.364Z,85.60
2024-02-01T19:28:49.046Z,85.90
2024-02-01T19:31:19.631Z,86.20
2024-02-01T19:33:53.232Z,86.50
2024-02-01T19:36:29.724Z,86.70
2024-02-01T19:38:58.414Z,86.90
2024-02-01T19:41:26.482Z,87.00
2024-02-01T19:43:54.715Z,86.90
2024-02-01T19:46:23.368Z,87.40
2024-02-01T19:48:52.977Z,86.90
2024-02-01T19:51:21.155Z,86.70
2024-02-01T19:53:49.266Z,87.00
2024-02-01T19:56:17.470Z,87.20
2024-02-01T19:58:45.543Z,87.70
2024-02-01T20:01:13.649Z,87.70
2024-02-01T20:03:41.737Z,87.90
2024-02-01T20:06:15.209Z,87.90
2024-02-01T20:08:43.762Z,87.90
2024-02-01T20:11:12.186Z,88.00
2024-02-01T20:13:40.872Z,88.20
2024-02-01T20:16:09.998Z,88.40
2024-02-01T20:18:39.277Z,88.50
2024-02-01T20:21:08.285Z,88.30
2024-02-01T20:23:37.863Z,88.80
2024-02-01T20:26:08.568Z,87.80
2024-02-01T20:28:57.794Z,87.30
2024-02-01T20:31:32.182Z,86.70
2024-02-01T20:34:02.337Z,86.70
2024-02-01T20:36:52.162Z,86.80
2024-02-01T20:39:33.984Z,86.10
2024-02-01T20:42:03.714Z,86.20
2024-02-01T20:44:35.904Z,86.10
2024-02-01T20:47:06.818Z,86.20
2024-02-01T20:49:35.288Z,85.90
2024-02-01T20:52:05.620Z,85.90
2024-02-01T20:54:37.327Z,86.10
2024-02-01T20:57:29.710Z,86.20
2024-02-01T20:59:58.533Z,86.70
2024-02-01T21:02:50.009Z,86.70
2024-02-01T21:05:39.590Z,86.60
2024-02-01T21:08:13.136Z,86.50
2024-02-01T21:10:51.333Z,86.40
2024-02-01T21:13:22.943Z,86.40
2024-02-01T21:15:54.824Z,86.30
2024-02-01T21:18:24.076Z,86.10
2024-02-01T21:20:53.348Z,85.90
2024-02-01T21:23:36.339Z,85.90
2024-02-01T21:26:25.909Z,85.80
2024-02-01T21:28:57.568Z,85.80
2024-02-01T21:31:58.637Z,85.40
2024-02-01T21:34:31.674Z,84.60
2024-02-01T21:37:04.959Z,84.20
2024-02-01T21:39:53.747Z,84.20
2024-02-01T21:42:59.733Z,84.40
2024-02-01T21:45:29.740Z,84.10
2024-02-01T21:47:58.320Z,82.80
2024-02-01T21:50:27.191Z,82.70
2024-02-01T21:52:55.924Z,83.00
2024-02-01T21:55:27.916Z,83.30
2024-02-01T21:57:58.261Z,82.80
2024-02-01T22:00:26.687Z,83.10
2024-02-01T22:02:55.238Z,83.60
2024-02-01T22:05:24.301Z,84.10
2024-02-01T22:07:52.626Z,84.80
2024-02-01T22:10:21.006Z,85.30
2024-02-01T22:12:49.157Z,85.90
2024-02-01T22:15:19.128Z,86.30
2024-02-01T22:17:47.436Z,86.90
2024-02-01T22:20:15.643Z,87.10
2024-02-01T22:22:43.732Z,87.50
2024-02-01T22:25:11.993Z,87.60
2024-02-01T22:27:40.508Z,88.10
2024-02-01T22:30:09.753Z,88.10
2024-02-01T22:32:41.857Z,88.10
2024-02-01T22:35:10.868Z,88.50
2024-02-01T22:37:39.684Z,88.50
2024-02-01T22:40:09.087Z,88.70
2024-02-01T22:42:37.564Z,88.70
2024-02-01T22:45:06.633Z,88.70
2024-02-01T22:47:35.779Z,88.90
2024-02-01T22:50:05.919Z,89.10
2024-02-01T22:52:33.968Z,89.10
2024-02-01T22:55:02.079Z,89.40
2024-02-01T22:57:31.110Z,89.60
2024-02-01T22:59:59.234Z,89.70
2024-02-01T23:02:27.446Z,89.90
2024-02-01T23:04:55.472Z,89.80
2024-02-01T23:07:26.657Z,89.70
2024-02-01T23:09:54.868Z,89.40
2024-02-01T23:12:22.980Z,89.00
2024-02-01T23:14:51.060Z,88.60
2024-02-01T23:17:19.218Z,88.70
2024-02-01T23:19:47.588Z,88.90
2024-02-01T23:22:16.103Z,89.00
2024-02-01T23:24:45.831Z,89.00
2024-02-01T23:27:14.105Z,88.90
2024-02-01T23:29:42.359Z,88.90
2024-02-01T23:32:10.477Z,89.00
2024-02-01T23:34:39.521Z,89.20
2024-02-01T23:37:08.272Z,89.20
2024-02-01T23:39:37.452Z,89.10
2024-02-01T23:42:07.180Z,89.00
2024-02-01T23:44:35.544Z,89.20
2024-02-01T23:47:03.613Z,89.50
2024-02-01T23:49:32.190Z,89.40
2024-02-01T23:52:00.717Z,89.50
2024-02-01T23:54:28.833Z,89.60
2024-02-01T23:56:56.975Z,89.70
2024-02-01T23:59:26.429Z,90.20
